sensor_id;sensor_type;location;lat;lon;timestamp;temperature;humidity
18611;DHT22;9435;52.122;5.502;2023-02-01T00:00:28;4.80;99.90
18611;DHT22;9435;52.122;5.502;2023-02-01T00:02:55;4.90;99.90
18611;DHT22;9435;52.122;5.502;2023-02-01T00:05:22;4.90;99.90
18611;DHT22;9435;52.122;5.502;2023-02-01T00:07:51;5.00;99.90
18611;DHT22;9435;52.122;5.502;2023-02-01T00:10:18;4.90;99.90
18611;DHT22;9435;52.122;5.502;2023-02-01T00:12:45;5.00;99.90
18611;DHT22;9435;52.122;5.502;2023-02-01T00:15:12;5.10;99.90
18611;DHT22;9435;52.122;5.502;2023-02-01T00:17:39;5.10;99.90
18611;DHT22;9435;52.122;5.502;2023-02-01T00:20:07;5.10;99.90
18611;DHT22;9435;52.122;5.502;2023-02-01T00:22:34;5.10;99.90
18611;DHT22;9435;52.122;5.502;2023-02-01T00:25:03;5.10;99.90
18611;DHT22;9435;52.122;5.502;2023-02-01T00:27:30;5.20;99.90
18611;DHT22;9435;52.122;5.502;2023-02-01T00:29:57;5.20;99.90
18611;DHT22;9435;52.122;5.502;2023-02-01T00:32:24;5.30;99.90
18611;DHT22;9435;52.122;5.502;2023-02-01T00:34:51;5.30;99.90
18611;DHT22;9435;52.122;5.502;2023-02-01T00:37:18;5.30;99.90
18611;DHT22;9435;52.122;5.502;2023-02-01T00:39:45;5.30;99.90
18611;DHT22;9435;52.122;5.502;2023-02-01T00:42:14;5.40;99.90
18611;DHT22;9435;52.122;5.502;2023-02-01T00:44:41;5.40;99.90
18611;DHT22;9435;52.122;5.502;2023-02-01T00:47:08;5.40;99.90
18611;DHT22;9435;52.122;5.502;2023-02-01T00:49:35;5.40;99.90
18611;DHT22;9435;52.122;5.502;2023-02-01T00:52:02;5.40;99.90
18611;DHT22;9435;52.122;5.502;2023-02-01T00:54:30;5.50;99.90
18611;DHT22;9435;52.122;5.502;2023-02-01T00:56:58;5.50;99.90
18611;DHT22;9435;52.122;5.502;2023-02-01T00:59:26;5.50;99.90
18611;DHT22;9435;52.122;5.502;2023-02-01T01:01:53;5.50;99.90
18611;DHT22;9435;52.122;5.502;2023-02-01T01:04:20;5.50;99.90
18611;DHT22;9435;52.122;5.502;2023-02-01T01:06:47;5.40;99.90
18611;DHT22;9435;52.122;5.502;2023-02-01T01:09:14;5.60;99.90
18611;DHT22;9435;52.122;5.502;2023-02-01T01:11:41;5.50;99.90
18611;DHT22;9435;52.122;5.502;2023-02-01T01:14:09;5.60;99.90
18611;DHT22;9435;52.122;5.502;2023-02-01T01:16:38;5.60;99.90
18611;DHT22;9435;52.122;5.502;2023-02-01T01:19:05;5.60;99.90
18611;DHT22;9435;52.122;5.502;2023-02-01T01:21:32;5.60;99.90
18611;DHT22;9435;52.122;5.502;2023-02-01T01:23:59;5.60;99.90
18611;DHT22;9435;52.122;5.502;2023-02-01T01:26:28;5.60;99.90
18611;DHT22;9435;52.122;5.502;2023-02-01T01:28:56;5.50;99.90
18611;DHT22;9435;52.122;5.502;2023-02-01T01:31:24;5.60;99.90
18611;DHT22;9435;52.122;5.502;2023-02-01T01:33:54;5.70;99.90
18611;DHT22;9435;52.122;5.502;2023-02-01T01:36:21;5.70;99.90
18611;DHT22;9435;52.122;5.502;2023-02-01T01:38:48;5.80;99.90
18611;DHT22;9435;52.122;5.502;2023-02-01T01:41:17;5.80;99.90
18611;DHT22;9435;52.122;5.502;2023-02-01T01:43:51;5.90;99.90
18611;DHT22;9435;52.122;5.502;2023-02-01T01:46:19;5.90;99.90
18611;DHT22;9435;52.122;5.502;2023-02-01T01:48:53;6.00;99.90
18611;DHT22;9435;52.122;5.502;2023-02-01T01:51:23;6.10;99.90
18611;DHT22;9435;52.122;5.502;2023-02-01T01:53:56;6.00;99.90
18611;DHT22;9435;52.122;5.502;2023-02-01T01:56:25;6.00;99.90
18611;DHT22;9435;52.122;5.502;2023-02-01T01:58:54;6.10;99.90
18611;DHT22;9435;52.122;5.502;2023-02-01T02:01:21;6.10;99.90
18611;DHT22;9435;52.122;5.502;2023-02-01T02:03:49;6.10;99.90
18611;DHT22;9435;52.122;5.502;2023-02-01T02:06:26;6.10;99.90
18611;DHT22;9435;52.122;5.502;2023-02-01T02:08:54;6.20;99.90
18611;DHT22;9435;52.122;5.502;2023-02-01T02:11:21;6.30;99.90
18611;DHT22;9435;52.122;5.502;2023-02-01T02:13:49;6.30;99.90
18611;DHT22;9435;52.122;5.502;2023-02-01T02:16:39;6.30;99.90
18611;DHT22;9435;52.122;5.502;2023-02-01T02:22:32;6.40;99.90
18611;DHT22;9435;52.122;5.502;2023-02-01T02:28:22;6.40;99.90
18611;DHT22;9435;52.122;5.502;2023-02-01T02:31:16;6.40;99.90
18611;DHT22;9435;52.122;5.502;2023-02-01T02:34:01;6.40;99.90
18611;DHT22;9435;52.122;5.502;2023-02-01T02:36:37;6.50;99.90
18611;DHT22;9435;52.122;5.502;2023-02-01T02:39:08;6.50;99.90
18611;DHT22;9435;52.122;5.502;2023-02-01T02:41:46;6.50;99.90
18611;DHT22;9435;52.122;5.502;2023-02-01T02:44:35;6.60;99.90
18611;DHT22;9435;52.122;5.502;2023-02-01T02:47:27;6.60;99.90
18611;DHT22;9435;52.122;5.502;2023-02-01T02:50:15;6.60;99.90
18611;DHT22;9435;52.122;5.502;2023-02-01T02:53:04;6.60;99.90
18611;DHT22;9435;52.122;5.502;2023-02-01T02:55:51;6.70;99.90
18611;DHT22;9435;52.122;5.502;2023-02-01T02:58:32;6.70;99.90
18611;DHT22;9435;52.122;5.502;2023-02-01T03:01:17;6.70;99.90
18611;DHT22;9435;52.122;5.502;2023-02-01T03:04:02;6.70;99.90
18611;DHT22;9435;52.122;5.502;2023-02-01T03:06:37;6.80;99.90
18611;DHT22;9435;52.122;5.502;2023-02-01T03:09:10;6.70;99.90
18611;DHT22;9435;52.122;5.502;2023-02-01T03:11:39;6.70;99.90
18611;DHT22;9435;52.122;5.502;2023-02-01T03:14:28;6.70;99.90
18611;DHT22;9435;52.122;5.502;2023-02-01T03:16:59;6.70;99.90
18611;DHT22;9435;52.122;5.502;2023-02-01T03:19:33;6.60;99.90
18611;DHT22;9435;52.122;5.502;2023-02-01T03:22:04;6.70;99.90
18611;DHT22;9435;52.122;5.502;2023-02-01T03:24:37;6.60;99.90
18611;DHT22;9435;52.122;5.502;2023-02-01T03:27:09;6.70;99.90
18611;DHT22;9435;52.122;5.502;2023-02-01T03:29:40;6.70;99.90
18611;DHT22;9435;52.122;5.502;2023-02-01T03:32:09;6.60;99.90
18611;DHT22;9435;52.122;5.502;2023-02-01T03:34:36;6.60;99.90
18611;DHT22;9435;52.122;5.502;2023-02-01T03:37:08;6.60;99.90
18611;DHT22;9435;52.122;5.502;2023-02-01T03:39:39;6.50;99.90
18611;DHT22;9435;52.122;5.502;2023-02-01T03:42:12;6.50;99.90
18611;DHT22;9435;52.122;5.502;2023-02-01T03:44:46;6.40;99.90
18611;DHT22;9435;52.122;5.502;2023-02-01T03:47:16;6.50;99.90
18611;DHT22;9435;52.122;5.502;2023-02-01T03:49:47;6.40;99.90
18611;DHT22;9435;52.122;5.502;2023-02-01T03:52:20;6.40;99.90
18611;DHT22;9435;52.122;5.502;2023-02-01T03:54:49;6.50;99.90
18611;DHT22;9435;52.122;5.502;2023-02-01T03:57:20;6.50;99.90
18611;DHT22;9435;52.122;5.502;2023-02-01T03:59:49;6.40;99.90
18611;DHT22;9435;52.122;5.502;2023-02-01T04:02:16;6.40;99.90
18611;DHT22;9435;52.122;5.502;2023-02-01T04:04:43;6.40;99.90
18611;DHT22;9435;52.122;5.502;2023-02-01T04:07:11;6.30;99.90
18611;DHT22;9435;52.122;5.502;2023-02-01T04:09:40;6.30;99.90
18611;DHT22;9435;52.122;5.502;2023-02-01T04:12:07;6.40;99.90
18611;DHT22;9435;52.122;5.502;2023-02-01T04:14:34;6.40;99.90
18611;DHT22;9435;52.122;5.502;2023-02-01T04:17:01;6.40;99.90
18611;DHT22;9435;52.122;5.502;2023-02-01T04:19:28;6.40;99.90
18611;DHT22;9435;52.122;5.502;2023-02-01T04:21:55;6.50;99.90
18611;DHT22;9435;52.122;5.502;2023-02-01T04:24:22;6.60;99.90
18611;DHT22;9435;52.122;5.502;2023-02-01T04:26:51;6.60;99.90
18611;DHT22;9435;52.122;5.502;2023-02-01T04:29:18;6.70;99.90
18611;DHT22;9435;52.122;5.502;2023-02-01T04:31:45;6.70;99.90
18611;DHT22;9435;52.122;5.502;2023-02-01T04:34:12;6.70;99.90
18611;DHT22;9435;52.122;5.502;2023-02-01T04:36:39;6.70;99.90
18611;DHT22;9435;52.122;5.502;2023-02-01T04:39:06;6.70;99.90
18611;DHT22;9435;52.122;5.502;2023-02-01T04:41:34;6.80;99.90
18611;DHT22;9435;52.122;5.502;2023-02-01T04:44:03;6.80;99.90
18611;DHT22;9435;52.122;5.502;2023-02-01T04:46:30;6.80;99.90
18611;DHT22;9435;52.122;5.502;2023-02-01T04:48:57;6.70;99.90
18611;DHT22;9435;52.122;5.502;2023-02-01T04:51:24;6.60;99.90
18611;DHT22;9435;52.122;5.502;2023-02-01T04:53:51;6.70;99.90
18611;DHT22;9435;52.122;5.502;2023-02-01T04:56:21;6.60;99.90
18611;DHT22;9435;52.122;5.502;2023-02-01T04:58:48;6.50;99.90
18611;DHT22;9435;52.122;5.502;2023-02-01T05:01:16;6.50;99.90
18611;DHT22;9435;52.122;5.502;2023-02-01T05:03:43;6.60;99.90
18611;DHT22;9435;52.122;5.502;2023-02-01T05:06:10;6.50;99.90
18611;DHT22;9435;52.122;5.502;2023-02-01T05:08:37;6.50;99.90
18611;DHT22;9435;52.122;5.502;2023-02-01T05:11:05;6.50;99.90
18611;DHT22;9435;52.122;5.502;2023-02-01T05:13:32;6.50;99.90
18611;DHT22;9435;52.122;5.502;2023-02-01T05:16:17;6.50;99.90
18611;DHT22;9435;52.122;5.502;2023-02-01T05:18:44;6.50;99.90
18611;DHT22;9435;52.122;5.502;2023-02-01T05:21:11;6.50;99.90
18611;DHT22;9435;52.122;5.502;2023-02-01T05:23:38;6.50;99.90
18611;DHT22;9435;52.122;5.502;2023-02-01T05:26:19;6.40;99.90
18611;DHT22;9435;52.122;5.502;2023-02-01T05:28:46;6.40;99.90
18611;DHT22;9435;52.122;5.502;2023-02-01T05:31:13;6.40;99.90
18611;DHT22;9435;52.122;5.502;2023-02-01T05:33:42;6.40;99.90
18611;DHT22;9435;52.122;5.502;2023-02-01T05:36:09;6.50;99.90
18611;DHT22;9435;52.122;5.502;2023-02-01T05:38:36;6.50;99.90
18611;DHT22;9435;52.122;5.502;2023-02-01T05:41:03;6.50;99.90
18611;DHT22;9435;52.122;5.502;2023-02-01T05:43:30;6.50;99.90
18611;DHT22;9435;52.122;5.502;2023-02-01T05:45:58;6.50;99.90
18611;DHT22;9435;52.122;5.502;2023-02-01T05:48:25;6.60;99.90
18611;DHT22;9435;52.122;5.502;2023-02-01T05:50:54;6.50;99.90
18611;DHT22;9435;52.122;5.502;2023-02-01T05:53:21;6.60;99.90
18611;DHT22;9435;52.122;5.502;2023-02-01T05:55:48;6.60;99.90
18611;DHT22;9435;52.122;5.502;2023-02-01T05:58:15;6.60;99.90
18611;DHT22;9435;52.122;5.502;2023-02-01T06:00:42;6.70;99.90
18611;DHT22;9435;52.122;5.502;2023-02-01T06:03:09;6.60;99.90
18611;DHT22;9435;52.122;5.502;2023-02-01T06:05:36;6.60;99.90
18611;DHT22;9435;52.122;5.502;2023-02-01T06:08:05;6.60;99.90
18611;DHT22;9435;52.122;5.502;2023-02-01T06:10:33;6.60;99.90
18611;DHT22;9435;52.122;5.502;2023-02-01T06:13:00;6.70;99.90
18611;DHT22;9435;52.122;5.502;2023-02-01T06:15:28;6.80;99.90
18611;DHT22;9435;52.122;5.502;2023-02-01T06:17:56;6.80;99.90
18611;DHT22;9435;52.122;5.502;2023-02-01T06:20:23;6.70;99.90
18611;DHT22;9435;52.122;5.502;2023-02-01T06:22:50;6.70;99.90
18611;DHT22;9435;52.122;5.502;2023-02-01T06:25:19;6.70;99.90
18611;DHT22;9435;52.122;5.502;2023-02-01T06:27:47;6.70;99.90
18611;DHT22;9435;52.122;5.502;2023-02-01T06:30:14;6.60;99.90
18611;DHT22;9435;52.122;5.502;2023-02-01T06:32:42;6.70;99.90
18611;DHT22;9435;52.122;5.502;2023-02-01T06:35:09;6.70;99.90
18611;DHT22;9435;52.122;5.502;2023-02-01T06:37:42;6.70;99.90
18611;DHT22;9435;52.122;5.502;2023-02-01T06:40:10;6.60;99.90
18611;DHT22;9435;52.122;5.502;2023-02-01T06:42:38;6.60;99.90
18611;DHT22;9435;52.122;5.502;2023-02-01T06:45:06;6.50;99.90
18611;DHT22;9435;52.122;5.502;2023-02-01T06:47:34;6.40;99.90
18611;DHT22;9435;52.122;5.502;2023-02-01T06:50:01;6.40;99.90
18611;DHT22;9435;52.122;5.502;2023-02-01T06:52:28;6.40;99.90
18611;DHT22;9435;52.122;5.502;2023-02-01T06:54:55;6.40;99.90
18611;DHT22;9435;52.122;5.502;2023-02-01T06:57:22;6.40;99.90
18611;DHT22;9435;52.122;5.502;2023-02-01T06:59:50;6.40;99.90
18611;DHT22;9435;52.122;5.502;2023-02-01T07:02:17;6.40;99.90
18611;DHT22;9435;52.122;5.502;2023-02-01T07:04:44;6.30;99.90
18611;DHT22;9435;52.122;5.502;2023-02-01T07:07:11;6.30;99.90
18611;DHT22;9435;52.122;5.502;2023-02-01T07:09:38;6.40;99.90
18611;DHT22;9435;52.122;5.502;2023-02-01T07:12:06;6.30;99.90
18611;DHT22;9435;52.122;5.502;2023-02-01T07:14:33;6.30;99.90
18611;DHT22;9435;52.122;5.502;2023-02-01T07:17:02;6.30;99.90
18611;DHT22;9435;52.122;5.502;2023-02-01T07:19:29;6.40;99.90
18611;DHT22;9435;52.122;5.502;2023-02-01T07:21:56;6.40;99.90
18611;DHT22;9435;52.122;5.502;2023-02-01T07:24:23;6.30;99.90
18611;DHT22;9435;52.122;5.502;2023-02-01T07:26:50;6.40;99.90
18611;DHT22;9435;52.122;5.502;2023-02-01T07:29:17;6.40;99.90
18611;DHT22;9435;52.122;5.502;2023-02-01T07:31:47;6.40;99.90
18611;DHT22;9435;52.122;5.502;2023-02-01T07:34:15;6.40;99.90
18611;DHT22;9435;52.122;5.502;2023-02-01T07:36:42;6.40;99.90
18611;DHT22;9435;52.122;5.502;2023-02-01T07:39:10;6.40;99.90
18611;DHT22;9435;52.122;5.502;2023-02-01T07:41:37;6.30;99.90
18611;DHT22;9435;52.122;5.502;2023-02-01T07:44:04;6.40;99.90
18611;DHT22;9435;52.122;5.502;2023-02-01T07:46:31;6.40;99.90
18611;DHT22;9435;52.122;5.502;2023-02-01T07:48:58;6.40;99.90
18611;DHT22;9435;52.122;5.502;2023-02-01T07:51:27;6.50;99.90
18611;DHT22;9435;52.122;5.502;2023-02-01T07:53:54;6.40;99.90
18611;DHT22;9435;52.122;5.502;2023-02-01T07:56:22;6.40;99.90
18611;DHT22;9435;52.122;5.502;2023-02-01T07:58:51;6.40;99.90
18611;DHT22;9435;52.122;5.502;2023-02-01T08:01:21;6.40;99.90
18611;DHT22;9435;52.122;5.502;2023-02-01T08:03:51;6.40;99.90
18611;DHT22;9435;52.122;5.502;2023-02-01T08:06:19;6.40;99.90
18611;DHT22;9435;52.122;5.502;2023-02-01T08:08:49;6.40;99.90
18611;DHT22;9435;52.122;5.502;2023-02-01T08:11:17;6.40;99.90
18611;DHT22;9435;52.122;5.502;2023-02-01T08:13:44;6.40;99.90
18611;DHT22;9435;52.122;5.502;2023-02-01T08:16:13;6.40;99.90
18611;DHT22;9435;52.122;5.502;2023-02-01T08:18:40;6.40;99.90
18611;DHT22;9435;52.122;5.502;2023-02-01T08:21:09;6.40;99.90
18611;DHT22;9435;52.122;5.502;2023-02-01T08:23:37;6.40;99.90
18611;DHT22;9435;52.122;5.502;2023-02-01T08:26:08;6.40;99.90
18611;DHT22;9435;52.122;5.502;2023-02-01T08:28:35;6.50;99.90
18611;DHT22;9435;52.122;5.502;2023-02-01T08:31:07;6.60;99.90
18611;DHT22;9435;52.122;5.502;2023-02-01T08:33:34;6.60;99.90
18611;DHT22;9435;52.122;5.502;2023-02-01T08:36:04;6.70;99.90
18611;DHT22;9435;52.122;5.502;2023-02-01T08:38:31;6.80;99.90
18611;DHT22;9435;52.122;5.502;2023-02-01T08:41:04;6.80;99.90
18611;DHT22;9435;52.122;5.502;2023-02-01T08:43:32;6.80;99.90
18611;DHT22;9435;52.122;5.502;2023-02-01T08:46:00;6.80;99.90
18611;DHT22;9435;52.122;5.502;2023-02-01T08:48:27;6.80;99.90
18611;DHT22;9435;52.122;5.502;2023-02-01T08:50:54;6.80;99.90
18611;DHT22;9435;52.122;5.502;2023-02-01T08:53:21;6.80;99.90
18611;DHT22;9435;52.122;5.502;2023-02-01T08:55:48;6.90;99.90
18611;DHT22;9435;52.122;5.502;2023-02-01T08:58:15;6.90;99.90
18611;DHT22;9435;52.122;5.502;2023-02-01T09:00:44;7.00;99.90
18611;DHT22;9435;52.122;5.502;2023-02-01T09:03:11;7.00;99.90
18611;DHT22;9435;52.122;5.502;2023-02-01T09:05:39;7.00;99.90
18611;DHT22;9435;52.122;5.502;2023-02-01T09:08:06;7.00;99.90
18611;DHT22;9435;52.122;5.502;2023-02-01T09:10:34;7.00;99.90
18611;DHT22;9435;52.122;5.502;2023-02-01T09:13:01;7.00;99.90
18611;DHT22;9435;52.122;5.502;2023-02-01T09:15:28;7.10;99.90
18611;DHT22;9435;52.122;5.502;2023-02-01T09:17:57;7.10;99.90
18611;DHT22;9435;52.122;5.502;2023-02-01T09:20:24;7.30;99.90
18611;DHT22;9435;52.122;5.502;2023-02-01T09:22:51;7.50;99.90
18611;DHT22;9435;52.122;5.502;2023-02-01T09:25:19;7.60;99.90
18611;DHT22;9435;52.122;5.502;2023-02-01T09:27:46;7.70;99.90
18611;DHT22;9435;52.122;5.502;2023-02-01T09:30:13;7.70;99.90
18611;DHT22;9435;52.122;5.502;2023-02-01T09:32:40;7.70;99.90
18611;DHT22;9435;52.122;5.502;2023-02-01T09:35:09;7.70;99.90
18611;DHT22;9435;52.122;5.502;2023-02-01T09:37:36;7.70;99.90
18611;DHT22;9435;52.122;5.502;2023-02-01T09:40:04;7.70;99.90
18611;DHT22;9435;52.122;5.502;2023-02-01T09:45:29;7.60;99.90
18611;DHT22;9435;52.122;5.502;2023-02-01T09:48:03;7.60;99.90
18611;DHT22;9435;52.122;5.502;2023-02-01T09:50:38;7.60;99.90
18611;DHT22;9435;52.122;5.502;2023-02-01T09:53:11;7.60;99.90
18611;DHT22;9435;52.122;5.502;2023-02-01T09:55:41;7.60;99.90
18611;DHT22;9435;52.122;5.502;2023-02-01T09:58:14;7.60;99.90
18611;DHT22;9435;52.122;5.502;2023-02-01T10:00:49;7.60;99.90
18611;DHT22;9435;52.122;5.502;2023-02-01T10:03:17;7.60;99.90
18611;DHT22;9435;52.122;5.502;2023-02-01T10:06:13;7.60;99.90
18611;DHT22;9435;52.122;5.502;2023-02-01T10:11:59;7.60;99.90
18611;DHT22;9435;52.122;5.502;2023-02-01T10:14:41;7.60;99.90
18611;DHT22;9435;52.122;5.502;2023-02-01T10:17:20;7.60;99.90
18611;DHT22;9435;52.122;5.502;2023-02-01T10:19:59;7.50;99.90
18611;DHT22;9435;52.122;5.502;2023-02-01T10:22:40;7.50;99.90
18611;DHT22;9435;52.122;5.502;2023-02-01T10:25:14;7.40;99.90
18611;DHT22;9435;52.122;5.502;2023-02-01T10:27:43;7.40;99.90
18611;DHT22;9435;52.122;5.502;2023-02-01T10:30:19;7.30;99.90
18611;DHT22;9435;52.122;5.502;2023-02-01T10:32:49;7.20;99.90
18611;DHT22;9435;52.122;5.502;2023-02-01T10:35:22;7.10;99.90
18611;DHT22;9435;52.122;5.502;2023-02-01T10:37:52;7.00;99.90
18611;DHT22;9435;52.122;5.502;2023-02-01T10:40:21;7.00;99.90
18611;DHT22;9435;52.122;5.502;2023-02-01T10:42:50;7.00;99.90
18611;DHT22;9435;52.122;5.502;2023-02-01T10:45:21;7.00;99.90
18611;DHT22;9435;52.122;5.502;2023-02-01T10:47:51;7.00;99.90
18611;DHT22;9435;52.122;5.502;2023-02-01T10:50:29;7.00;99.90
18611;DHT22;9435;52.122;5.502;2023-02-01T10:53:04;7.00;99.90
18611;DHT22;9435;52.122;5.502;2023-02-01T10:55:37;7.10;99.90
18611;DHT22;9435;52.122;5.502;2023-02-01T10:58:06;7.10;99.90
18611;DHT22;9435;52.122;5.502;2023-02-01T11:00:39;7.10;99.90
18611;DHT22;9435;52.122;5.502;2023-02-01T11:03:31;7.20;99.90
18611;DHT22;9435;52.122;5.502;2023-02-01T11:05:59;7.20;99.90
18611;DHT22;9435;52.122;5.502;2023-02-01T11:08:29;7.20;99.90
18611;DHT22;9435;52.122;5.502;2023-02-01T11:10:59;7.40;99.90
18611;DHT22;9435;52.122;5.502;2023-02-01T11:13:29;7.40;99.90
18611;DHT22;9435;52.122;5.502;2023-02-01T11:15:58;7.50;99.90
18611;DHT22;9435;52.122;5.502;2023-02-01T11:18:28;7.50;99.90
18611;DHT22;9435;52.122;5.502;2023-02-01T11:20:55;7.50;99.90
18611;DHT22;9435;52.122;5.502;2023-02-01T11:23:24;7.50;99.90
18611;DHT22;9435;52.122;5.502;2023-02-01T11:25:55;7.50;99.90
18611;DHT22;9435;52.122;5.502;2023-02-01T11:28:25;7.50;99.90
18611;DHT22;9435;52.122;5.502;2023-02-01T11:30:55;7.50;99.90
18611;DHT22;9435;52.122;5.502;2023-02-01T11:33:26;7.60;99.90
18611;DHT22;9435;52.122;5.502;2023-02-01T11:35:57;7.60;99.90
18611;DHT22;9435;52.122;5.502;2023-02-01T11:38:28;7.70;99.90
18611;DHT22;9435;52.122;5.502;2023-02-01T11:41:11;7.70;99.90
18611;DHT22;9435;52.122;5.502;2023-02-01T11:43:51;7.70;99.90
18611;DHT22;9435;52.122;5.502;2023-02-01T11:46:21;7.80;99.90
18611;DHT22;9435;52.122;5.502;2023-02-01T11:48:51;7.90;99.90
18611;DHT22;9435;52.122;5.502;2023-02-01T11:51:38;7.90;99.90
18611;DHT22;9435;52.122;5.502;2023-02-01T11:54:28;8.00;99.90
18611;DHT22;9435;52.122;5.502;2023-02-01T11:57:08;8.10;99.90
18611;DHT22;9435;52.122;5.502;2023-02-01T11:59:57;8.10;99.90
18611;DHT22;9435;52.122;5.502;2023-02-01T12:02:49;8.10;99.90
18611;DHT22;9435;52.122;5.502;2023-02-01T12:05:27;8.10;99.90
18611;DHT22;9435;52.122;5.502;2023-02-01T12:08:21;8.10;99.90
18611;DHT22;9435;52.122;5.502;2023-02-01T12:11:00;8.20;99.90
18611;DHT22;9435;52.122;5.502;2023-02-01T12:13:43;8.20;99.90
18611;DHT22;9435;52.122;5.502;2023-02-01T12:16:21;8.20;99.90
18611;DHT22;9435;52.122;5.502;2023-02-01T12:19:09;8.30;99.90
18611;DHT22;9435;52.122;5.502;2023-02-01T12:21:48;8.30;99.90
18611;DHT22;9435;52.122;5.502;2023-02-01T12:24:56;8.30;99.90
18611;DHT22;9435;52.122;5.502;2023-02-01T12:27:51;8.30;99.90
18611;DHT22;9435;52.122;5.502;2023-02-01T12:30:40;8.30;99.90
18611;DHT22;9435;52.122;5.502;2023-02-01T12:33:16;8.30;99.90
18611;DHT22;9435;52.122;5.502;2023-02-01T12:35:53;8.30;99.90
18611;DHT22;9435;52.122;5.502;2023-02-01T12:38:34;8.30;99.90
18611;DHT22;9435;52.122;5.502;2023-02-01T12:41:16;8.30;99.90
18611;DHT22;9435;52.122;5.502;2023-02-01T12:43:49;8.20;99.90
18611;DHT22;9435;52.122;5.502;2023-02-01T12:46:25;8.30;99.90
18611;DHT22;9435;52.122;5.502;2023-02-01T12:48:57;8.30;99.90
18611;DHT22;9435;52.122;5.502;2023-02-01T12:51:27;8.20;99.90
18611;DHT22;9435;52.122;5.502;2023-02-01T12:53:59;8.20;99.90
18611;DHT22;9435;52.122;5.502;2023-02-01T12:56:31;8.20;99.90
18611;DHT22;9435;52.122;5.502;2023-02-01T12:59:02;8.20;99.90
18611;DHT22;9435;52.122;5.502;2023-02-01T13:01:35;8.10;99.90
18611;DHT22;9435;52.122;5.502;2023-02-01T13:04:10;8.20;99.90
18611;DHT22;9435;52.122;5.502;2023-02-01T13:06:43;8.10;99.90
18611;DHT22;9435;52.122;5.502;2023-02-01T13:09:19;8.10;99.90
18611;DHT22;9435;52.122;5.502;2023-02-01T13:11:48;8.20;99.90
18611;DHT22;9435;52.122;5.502;2023-02-01T13:14:23;8.20;99.90
18611;DHT22;9435;52.122;5.502;2023-02-01T13:16:58;8.20;99.90
18611;DHT22;9435;52.122;5.502;2023-02-01T13:19:29;8.20;99.90
18611;DHT22;9435;52.122;5.502;2023-02-01T13:22:00;8.20;99.90
18611;DHT22;9435;52.122;5.502;2023-02-01T13:24:36;8.20;99.90
18611;DHT22;9435;52.122;5.502;2023-02-01T13:27:04;8.10;99.90
18611;DHT22;9435;52.122;5.502;2023-02-01T13:29:33;8.10;99.90
18611;DHT22;9435;52.122;5.502;2023-02-01T13:35:19;8.10;99.90
18611;DHT22;9435;52.122;5.502;2023-02-01T13:38:02;8.10;99.90
18611;DHT22;9435;52.122;5.502;2023-02-01T13:40:37;8.10;99.90
18611;DHT22;9435;52.122;5.502;2023-02-01T13:43:11;8.10;99.90
18611;DHT22;9435;52.122;5.502;2023-02-01T13:45:45;8.20;99.90
18611;DHT22;9435;52.122;5.502;2023-02-01T13:48:21;8.10;99.90
18611;DHT22;9435;52.122;5.502;2023-02-01T13:50:55;8.20;99.90
18611;DHT22;9435;52.122;5.502;2023-02-01T13:53:28;8.20;99.90
18611;DHT22;9435;52.122;5.502;2023-02-01T13:55:59;8.30;99.90
18611;DHT22;9435;52.122;5.502;2023-02-01T13:58:32;8.30;99.90
18611;DHT22;9435;52.122;5.502;2023-02-01T14:04:46;8.40;99.90
18611;DHT22;9435;52.122;5.502;2023-02-01T14:07:19;8.40;99.90
18611;DHT22;9435;52.122;5.502;2023-02-01T14:09:47;8.50;99.90
18611;DHT22;9435;52.122;5.502;2023-02-01T14:12:46;8.50;99.90
18611;DHT22;9435;52.122;5.502;2023-02-01T14:15:24;8.50;99.90
18611;DHT22;9435;52.122;5.502;2023-02-01T14:17:52;8.50;99.90
18611;DHT22;9435;52.122;5.502;2023-02-01T14:20:45;8.50;99.90
18611;DHT22;9435;52.122;5.502;2023-02-01T14:23:25;8.50;99.90
18611;DHT22;9435;52.122;5.502;2023-02-01T14:26:11;8.40;99.90
18611;DHT22;9435;52.122;5.502;2023-02-01T14:28:51;8.40;99.90
18611;DHT22;9435;52.122;5.502;2023-02-01T14:31:42;8.40;99.90
18611;DHT22;9435;52.122;5.502;2023-02-01T14:34:16;8.40;99.90
18611;DHT22;9435;52.122;5.502;2023-02-01T14:36:52;8.30;99.90
18611;DHT22;9435;52.122;5.502;2023-02-01T14:39:26;8.30;99.90
18611;DHT22;9435;52.122;5.502;2023-02-01T14:41:56;8.30;99.90
18611;DHT22;9435;52.122;5.502;2023-02-01T14:44:30;8.30;99.90
18611;DHT22;9435;52.122;5.502;2023-02-01T14:53:22;8.30;99.90
18611;DHT22;9435;52.122;5.502;2023-02-01T14:55:53;8.30;99.90
18611;DHT22;9435;52.122;5.502;2023-02-01T14:58:31;8.30;99.90
18611;DHT22;9435;52.122;5.502;2023-02-01T15:01:00;8.30;99.90
18611;DHT22;9435;52.122;5.502;2023-02-01T15:03:46;8.30;99.90
18611;DHT22;9435;52.122;5.502;2023-02-01T15:06:39;8.20;99.90
18611;DHT22;9435;52.122;5.502;2023-02-01T15:09:12;8.10;99.90
18611;DHT22;9435;52.122;5.502;2023-02-01T15:11:54;8.00;99.90
18611;DHT22;9435;52.122;5.502;2023-02-01T15:14:22;8.00;99.90
18611;DHT22;9435;52.122;5.502;2023-02-01T15:16:49;8.00;99.90
18611;DHT22;9435;52.122;5.502;2023-02-01T15:19:21;8.00;99.90
18611;DHT22;9435;52.122;5.502;2023-02-01T15:21:50;8.10;99.90
18611;DHT22;9435;52.122;5.502;2023-02-01T15:24:23;8.10;99.90
18611;DHT22;9435;52.122;5.502;2023-02-01T15:26:51;8.10;99.90
18611;DHT22;9435;52.122;5.502;2023-02-01T15:29:20;8.20;99.90
18611;DHT22;9435;52.122;5.502;2023-02-01T15:31:49;8.20;99.90
18611;DHT22;9435;52.122;5.502;2023-02-01T15:34:17;8.20;99.90
18611;DHT22;9435;52.122;5.502;2023-02-01T15:36:45;8.20;99.90
18611;DHT22;9435;52.122;5.502;2023-02-01T15:39:18;8.20;99.90
18611;DHT22;9435;52.122;5.502;2023-02-01T15:41:51;8.30;99.90
18611;DHT22;9435;52.122;5.502;2023-02-01T15:44:26;8.20;99.90
18611;DHT22;9435;52.122;5.502;2023-02-01T15:46:55;8.20;99.90
18611;DHT22;9435;52.122;5.502;2023-02-01T15:49:26;8.30;99.90
18611;DHT22;9435;52.122;5.502;2023-02-01T15:51:54;8.30;99.90
18611;DHT22;9435;52.122;5.502;2023-02-01T15:54:26;8.20;99.90
18611;DHT22;9435;52.122;5.502;2023-02-01T15:56:59;8.20;99.90
18611;DHT22;9435;52.122;5.502;2023-02-01T15:59:32;8.20;99.90
18611;DHT22;9435;52.122;5.502;2023-02-01T16:02:01;8.30;99.90
18611;DHT22;9435;52.122;5.502;2023-02-01T16:04:29;8.30;99.90
18611;DHT22;9435;52.122;5.502;2023-02-01T16:06:58;8.30;99.90
18611;DHT22;9435;52.122;5.502;2023-02-01T16:09:36;8.30;99.90
18611;DHT22;9435;52.122;5.502;2023-02-01T16:12:22;8.30;99.90
18611;DHT22;9435;52.122;5.502;2023-02-01T16:14:50;8.30;99.90
18611;DHT22;9435;52.122;5.502;2023-02-01T16:17:17;8.30;99.90
18611;DHT22;9435;52.122;5.502;2023-02-01T16:19:44;8.30;99.90
18611;DHT22;9435;52.122;5.502;2023-02-01T16:22:11;8.30;99.90
18611;DHT22;9435;52.122;5.502;2023-02-01T16:24:38;8.30;99.90
18611;DHT22;9435;52.122;5.502;2023-02-01T16:27:07;8.30;99.90
18611;DHT22;9435;52.122;5.502;2023-02-01T16:29:34;8.30;99.90
18611;DHT22;9435;52.122;5.502;2023-02-01T16:32:01;8.20;99.90
18611;DHT22;9435;52.122;5.502;2023-02-01T16:34:29;8.30;99.90
18611;DHT22;9435;52.122;5.502;2023-02-01T16:37:02;8.30;99.90
18611;DHT22;9435;52.122;5.502;2023-02-01T16:39:30;8.30;99.90
18611;DHT22;9435;52.122;5.502;2023-02-01T16:41:58;8.30;99.90
18611;DHT22;9435;52.122;5.502;2023-02-01T16:44:27;8.30;99.90
18611;DHT22;9435;52.122;5.502;2023-02-01T16:46:54;8.30;99.90
18611;DHT22;9435;52.122;5.502;2023-02-01T16:49:23;8.40;99.90
18611;DHT22;9435;52.122;5.502;2023-02-01T16:51:52;8.40;99.90
18611;DHT22;9435;52.122;5.502;2023-02-01T16:54:22;8.30;99.90